Terminal Aerodrome Forecast
Issued by NWS

Home | Current Version | Previous Version | Graphics & Text | Print | Product List | Glossary On
Versions: 1 2 3 4 5 6 7 8 9 10 11 12 13 14 15 16
000
FTUS43 KGRB 210333 AAB
TAFAUW
TAF AMD
KAUW 210333Z 2104/2124 30009G15KT P6SM SCT015 BKN070
      TEMPO 2104/2108 BKN015
     FM211400 30010G17KT P6SM BKN035
     FM211900 29009G15KT P6SM SCT045
     FM212300 29007KT P6SM SKC=

USA.gov is the U.S. government's official web portal to all federal, state and local government web resources and services.